Time;durP1;ratioP1;P1;durP2;ratioP2;P2;SDS_P1;SDS_P2;PMS_P1;PMS_P2;Temp;Humidity;BMP_temperature;BMP_pressure;BME280_temperature;BME280_humidity;BME280_pressure;Samples;Min_cycle;Max_cycle;Signal;HPM_P1;HPM_P2
2022/08/31 00:04:01;;;;;;;1.55;0.20;;;17.00;99.90;;;;;;4901605;29;20063;-82
2022/08/31 00:06:30;;;;;;;1.10;0.20;;;17.00;99.90;;;;;;4901640;29;20146;-83
2022/08/31 00:08:56;;;;;;;0.65;0.30;;;17.00;99.90;;;;;;4901621;29;20140;-83
2022/08/31 00:11:28;;;;;;;1.50;0.22;;;16.90;99.90;;;;;;4901408;29;20127;-82
2022/08/31 00:13:56;;;;;;;0.55;0.30;;;16.90;99.90;;;;;;4918224;29;20048;-82
2022/08/31 00:16:23;;;;;;;0.68;0.20;;;16.90;99.90;;;;;;4901411;29;20152;-82
2022/08/31 00:18:51;;;;;;;1.85;0.35;;;16.80;99.90;;;;;;4918277;29;20044;-81
2022/08/31 00:21:21;;;;;;;0.75;0.30;;;16.80;99.90;;;;;;4901164;29;20514;-83
2022/08/31 00:23:48;;;;;;;1.52;0.20;;;16.80;99.90;;;;;;4918248;29;20099;-82
2022/08/31 00:26:15;;;;;;;0.68;0.15;;;16.70;99.90;;;;;;4918097;29;20067;-82
2022/08/31 00:28:41;;;;;;;1.33;0.20;;;16.70;99.90;;;;;;4901087;29;20080;-82
2022/08/31 00:31:07;;;;;;;0.47;0.20;;;16.60;99.90;;;;;;4901669;29;20094;-83
2022/08/31 00:33:35;;;;;;;0.63;0.20;;;16.60;99.90;;;;;;4900589;29;20107;-83
2022/08/31 00:36:05;;;;;;;1.83;0.30;;;16.60;99.90;;;;;;4900781;29;20056;-83
2022/08/31 00:38:30;;;;;;;2.85;0.43;;;16.60;99.90;;;;;;4900867;29;20056;-83
2022/08/31 00:40:57;;;;;;;0.75;0.30;;;16.50;99.90;;;;;;4900885;29;20036;-84
2022/08/31 00:43:44;;;;;;;2.05;0.30;;;16.50;99.90;;;;;;4900932;29;20377;-82
2022/08/31 00:46:12;;;;;;;1.13;0.30;;;16.50;99.90;;;;;;4900629;29;20040;-82
2022/08/31 00:48:47;;;;;;;1.48;0.20;;;16.40;99.90;;;;;;4917710;29;20056;-82
2022/08/31 00:51:13;;;;;;;0.45;0.20;;;16.50;99.90;;;;;;4900530;29;20400;-82
2022/08/31 00:53:39;;;;;;;1.27;0.20;;;16.40;99.90;;;;;;4900630;29;20487;-82
2022/08/31 00:56:06;;;;;;;0.75;0.20;;;16.40;99.90;;;;;;4900750;29;20055;-82
2022/08/31 00:58:31;;;;;;;0.77;0.20;;;16.40;99.90;;;;;;4900511;29;20064;-82
2022/08/31 01:00:58;;;;;;;0.30;0.20;;;16.40;99.90;;;;;;4900681;29;20056;-83
2022/08/31 01:03:25;;;;;;;0.82;0.20;;;16.30;99.90;;;;;;4900603;29;20091;-82
2022/08/31 01:05:51;;;;;;;0.40;0.10;;;16.30;99.90;;;;;;4917471;29;20059;-82
2022/08/31 01:08:20;;;;;;;0.55;0.13;;;16.20;99.90;;;;;;4917733;29;20040;-82
2022/08/31 01:10:46;;;;;;;1.42;0.30;;;16.30;99.90;;;;;;4900394;29;20127;-82
2022/08/31 01:13:14;;;;;;;0.90;0.20;;;16.30;99.90;;;;;;4900367;29;20059;-82
2022/08/31 01:15:46;;;;;;;1.15;0.20;;;16.20;99.90;;;;;;4917233;29;20420;-83
2022/08/31 01:18:13;;;;;;;0.35;0.13;;;16.10;99.90;;;;;;4900581;29;20104;-82
2022/08/31 01:21:01;;;;;;;1.58;0.10;;;16.20;99.90;;;;;;4900672;29;20060;-82
2022/08/31 01:23:33;;;;;;;1.65;0.38;;;16.10;99.90;;;;;;4900241;29;20044;-82
2022/08/31 01:26:01;;;;;;;0.60;0.20;;;16.10;99.90;;;;;;4900815;29;20092;-83
2022/08/31 01:28:27;;;;;;;0.82;0.10;;;16.00;99.90;;;;;;4900338;29;20051;-84
2022/08/31 01:30:57;;;;;;;1.00;0.30;;;16.00;99.90;;;;;;4900551;29;20044;-83
2022/08/31 01:33:23;;;;;;;0.40;0.25;;;16.00;99.90;;;;;;4900095;29;20048;-83
2022/08/31 01:35:48;;;;;;;1.48;0.30;;;15.90;99.90;;;;;;4899977;29;20151;-83
2022/08/31 01:38:14;;;;;;;1.75;0.30;;;15.90;99.90;;;;;;4900515;29;20060;-82
2022/08/31 01:40:48;;;;;;;1.10;0.20;;;15.90;99.90;;;;;;4900485;29;20613;-83
2022/08/31 01:43:14;;;;;;;0.52;0.20;;;15.90;99.90;;;;;;4900879;29;20047;-82
2022/08/31 01:45:40;;;;;;;0.68;0.20;;;15.90;99.90;;;;;;4920879;29;20059;-82
2022/08/31 01:48:06;;;;;;;0.35;0.10;;;15.80;99.90;;;;;;4904037;29;20141;-83
2022/08/31 01:50:32;;;;;;;1.42;0.22;;;15.80;99.90;;;;;;4904081;29;20457;-82
2022/08/31 01:52:58;;;;;;;1.17;0.30;;;15.70;99.90;;;;;;4903807;29;20120;-82
2022/08/31 01:55:24;;;;;;;2.42;0.20;;;15.70;99.90;;;;;;4903740;29;20076;-82
2022/08/31 01:57:50;;;;;;;0.93;0.28;;;15.60;99.90;;;;;;4904169;29;20052;-83
2022/08/31 02:00:18;;;;;;;1.17;0.10;;;15.60;99.90;;;;;;4920763;29;20103;-82
2022/08/31 02:02:44;;;;;;;1.17;0.28;;;15.60;99.90;;;;;;4903827;29;20056;-82
2022/08/31 02:05:12;;;;;;;2.28;0.32;;;15.60;99.90;;;;;;4903862;29;20048;-84
2022/08/31 02:07:38;;;;;;;0.50;0.20;;;15.60;99.90;;;;;;4903802;29;20052;-82
2022/08/31 02:10:04;;;;;;;1.38;0.20;;;15.50;99.90;;;;;;4920505;29;20040;-82
2022/08/31 02:12:30;;;;;;;1.45;0.25;;;15.50;99.90;;;;;;4903783;29;20056;-82
2022/08/31 02:14:55;;;;;;;0.50;0.20;;;15.50;99.90;;;;;;4903433;29;20059;-82
2022/08/31 02:17:21;;;;;;;0.50;0.20;;;15.50;99.90;;;;;;4903303;29;20060;-82
2022/08/31 02:19:47;;;;;;;0.32;0.20;;;15.40;99.90;;;;;;4903303;29;20060;-83
2022/08/31 02:22:12;;;;;;;0.75;0.13;;;15.40;99.90;;;;;;4903315;29;20041;-82
2022/08/31 02:24:38;;;;;;;1.08;0.30;;;15.40;99.90;;;;;;4903249;29;20179;-82
2022/08/31 02:27:06;;;;;;;1.45;0.25;;;15.40;99.90;;;;;;4920222;29;20048;-82
2022/08/31 02:29:32;;;;;;;2.30;0.28;;;15.40;99.90;;;;;;4903273;29;20051;-82
2022/08/31 02:31:58;;;;;;;2.15;0.30;;;15.40;99.90;;;;;;4902994;29;20078;-82
2022/08/31 02:34:24;;;;;;;1.45;0.30;;;15.40;99.90;;;;;;4902667;29;20052;-83
2022/08/31 02:36:49;;;;;;;0.52;0.20;;;15.40;99.90;;;;;;4903320;29;20147;-82
2022/08/31 02:39:15;;;;;;;0.50;0.20;;;15.40;99.90;;;;;;4903341;29;20412;-82
2022/08/31 02:41:41;;;;;;;0.50;0.28;;;15.40;99.90;;;;;;4919983;29;20043;-82
2022/08/31 02:44:06;;;;;;;0.35;0.20;;;15.40;99.90;;;;;;4903204;29;20056;-82
2022/08/31 02:46:32;;;;;;;0.68;0.20;;;15.50;99.90;;;;;;4903356;29;20048;-82
2022/08/31 02:49:00;;;;;;;3.53;0.38;;;15.40;99.90;;;;;;4919923;29;20500;-82
2022/08/31 02:51:26;;;;;;;0.55;0.30;;;15.40;99.90;;;;;;4902626;29;20115;-83
2022/08/31 02:53:51;;;;;;;1.08;0.20;;;15.40;99.90;;;;;;4902975;29;20131;-83
2022/08/31 02:56:17;;;;;;;2.28;0.30;;;15.40;99.90;;;;;;4919057;29;20491;-82
2022/08/31 02:58:43;;;;;;;1.30;0.20;;;15.40;99.90;;;;;;4902795;29;20052;-82
2022/08/31 03:01:09;;;;;;;1.08;0.30;;;15.40;99.90;;;;;;4902600;29;20112;-83
2022/08/31 03:03:35;;;;;;;0.70;0.35;;;15.40;99.90;;;;;;4902561;29;20052;-82
2022/08/31 03:06:01;;;;;;;1.23;0.30;;;15.40;99.90;;;;;;4902787;29;20055;-82
2022/08/31 03:08:27;;;;;;;3.00;0.28;;;15.40;99.90;;;;;;4902470;29;20104;-82
2022/08/31 03:10:53;;;;;;;2.75;0.47;;;15.40;99.90;;;;;;4902386;29;20400;-82
2022/08/31 03:13:19;;;;;;;1.17;0.38;;;15.40;99.90;;;;;;4919476;29;20102;-82
2022/08/31 03:15:45;;;;;;;2.80;0.50;;;15.40;99.90;;;;;;4902173;29;20496;-81
2022/08/31 03:18:11;;;;;;;1.30;0.43;;;15.40;99.90;;;;;;4902279;29;20067;-82
2022/08/31 03:20:36;;;;;;;1.17;0.30;;;15.40;99.90;;;;;;4902555;29;20131;-82
2022/08/31 03:23:03;;;;;;;0.80;0.30;;;15.30;99.90;;;;;;4902291;29;20457;-82
2022/08/31 03:25:29;;;;;;;1.92;0.32;;;15.30;99.90;;;;;;4902428;29;20068;-82
2022/08/31 03:27:55;;;;;;;1.83;0.60;;;15.30;99.90;;;;;;4902146;29;20498;-82
2022/08/31 03:30:22;;;;;;;2.25;0.40;;;15.30;99.90;;;;;;4918926;29;20132;-81
2022/08/31 03:32:53;;;;;;;0.82;0.38;;;15.30;99.90;;;;;;4902249;29;20120;-82
2022/08/31 03:35:19;;;;;;;1.63;0.40;;;15.20;99.90;;;;;;4901763;29;20669;-82
2022/08/31 03:37:45;;;;;;;0.73;0.30;;;15.20;99.90;;;;;;4901977;29;20052;-82
2022/08/31 03:40:10;;;;;;;1.70;0.25;;;15.20;99.90;;;;;;4901848;29;20052;-82
2022/08/31 03:42:36;;;;;;;0.70;0.30;;;15.20;99.90;;;;;;4902007;29;20056;-82
2022/08/31 03:45:03;;;;;;;0.77;0.40;;;15.20;99.90;;;;;;4918830;29;20398;-83
2022/08/31 03:47:32;;;;;;;0.95;0.50;;;15.20;99.90;;;;;;4901751;29;20051;-82
2022/08/31 03:49:57;;;;;;;2.05;0.57;;;15.20;99.90;;;;;;4901941;29;20496;-81
2022/08/31 03:52:23;;;;;;;0.57;0.30;;;15.20;99.90;;;;;;4918701;29;20051;-83
2022/08/31 03:54:48;;;;;;;0.75;0.20;;;15.20;99.90;;;;;;4918531;29;20051;-83
2022/08/31 03:57:14;;;;;;;0.47;0.30;;;15.20;99.90;;;;;;4901501;29;20055;-82
2022/08/31 03:59:39;;;;;;;0.50;0.30;;;15.20;99.90;;;;;;4901500;29;20060;-82
2022/08/31 04:02:05;;;;;;;1.25;0.63;;;15.20;99.90;;;;;;4901796;29;20051;-82
2022/08/31 04:04:31;;;;;;;1.13;0.30;;;15.20;99.90;;;;;;4918672;29;20394;-82
2022/08/31 04:06:56;;;;;;;1.77;0.43;;;15.20;99.90;;;;;;4900831;29;20040;-85
2022/08/31 04:09:22;;;;;;;1.55;0.30;;;15.20;99.90;;;;;;4901440;29;20048;-83
2022/08/31 04:11:48;;;;;;;0.50;0.25;;;15.20;99.90;;;;;;4918348;29;20128;-82
2022/08/31 04:14:14;;;;;;;1.90;0.40;;;15.20;99.90;;;;;;4901320;29;20051;-82
2022/08/31 04:16:43;;;;;;;1.33;0.30;;;15.20;99.90;;;;;;4901515;29;20135;-81
2022/08/31 04:19:10;;;;;;;1.70;0.55;;;15.20;99.90;;;;;;4901460;29;20111;-82
2022/08/31 04:21:36;;;;;;;1.42;0.57;;;15.30;99.90;;;;;;4901239;29;20063;-82
2022/08/31 04:24:03;;;;;;;1.60;0.40;;;15.30;99.90;;;;;;4901219;29;20075;-82
2022/08/31 04:26:32;;;;;;;1.77;0.50;;;15.20;99.90;;;;;;4917920;29;20048;-82
2022/08/31 04:28:58;;;;;;;1.13;0.50;;;15.30;99.90;;;;;;4901203;29;20052;-83
2022/08/31 04:31:25;;;;;;;3.17;0.57;;;15.30;99.90;;;;;;4901069;29;20048;-82
2022/08/31 04:33:50;;;;;;;1.83;0.50;;;15.20;99.90;;;;;;4900754;29;20087;-84
2022/08/31 04:36:20;;;;;;;1.70;0.40;;;15.20;99.90;;;;;;4900135;29;20095;-84
2022/08/31 04:38:48;;;;;;;1.70;0.40;;;15.30;99.90;;;;;;4899670;29;20060;-82
2022/08/31 04:41:17;;;;;;;2.22;0.52;;;15.30;99.90;;;;;;4900931;29;20107;-83
2022/08/31 04:43:46;;;;;;;2.88;0.70;;;15.30;99.90;;;;;;4900482;29;20052;-82
2022/08/31 04:46:12;;;;;;;1.30;0.55;;;15.30;99.90;;;;;;4900613;29;20052;-81
2022/08/31 04:48:38;;;;;;;1.38;0.50;;;15.30;99.90;;;;;;4900547;29;20036;-82
2022/08/31 04:51:11;;;;;;;2.90;0.50;;;15.30;99.90;;;;;;4917743;29;20048;-82
2022/08/31 04:53:38;;;;;;;1.67;0.40;;;15.20;99.90;;;;;;4917724;29;20095;-82
2022/08/31 04:56:13;;;;;;;3.83;0.60;;;15.20;99.90;;;;;;4900710;29;20051;-82
2022/08/31 04:59:06;;;;;;;1.63;0.47;;;15.20;99.90;;;;;;4900779;29;20055;-83
2022/08/31 05:01:37;;;;;;;2.10;0.47;;;15.20;99.90;;;;;;4898220;29;20056;-82
2022/08/31 05:04:04;;;;;;;1.90;0.40;;;15.20;99.90;;;;;;4900298;29;20048;-82
2022/08/31 05:06:33;;;;;;;0.80;0.40;;;15.20;99.90;;;;;;4917308;29;20487;-82
2022/08/31 05:09:02;;;;;;;3.22;0.60;;;15.20;99.90;;;;;;4917233;29;20040;-82
2022/08/31 05:11:28;;;;;;;2.25;0.50;;;15.20;99.90;;;;;;4900265;29;20399;-82
2022/08/31 05:13:56;;;;;;;1.55;0.63;;;15.20;99.90;;;;;;4900288;29;20472;-81
2022/08/31 05:16:22;;;;;;;1.35;0.43;;;15.20;99.90;;;;;;4917345;29;20048;-81
2022/08/31 05:18:49;;;;;;;1.45;0.43;;;15.20;99.90;;;;;;4902987;29;20055;-82
2022/08/31 05:21:27;;;;;;;2.47;0.68;;;15.20;99.90;;;;;;4906918;29;20059;-82
2022/08/31 05:23:55;;;;;;;1.88;0.70;;;15.20;99.90;;;;;;4906692;29;20048;-82
2022/08/31 05:26:24;;;;;;;2.47;0.80;;;15.20;99.90;;;;;;4906377;29;20052;-82
2022/08/31 05:28:50;;;;;;;1.23;0.55;;;15.20;99.90;;;;;;4906429;29;20373;-82
2022/08/31 05:31:16;;;;;;;2.22;0.70;;;15.20;99.90;;;;;;4906638;29;20056;-83
2022/08/31 05:33:43;;;;;;;1.67;0.52;;;15.30;99.90;;;;;;4906529;29;20048;-83
2022/08/31 05:36:10;;;;;;;2.75;0.70;;;15.30;99.90;;;;;;4906003;29;20052;-83
2022/08/31 05:38:36;;;;;;;1.30;0.60;;;15.30;99.90;;;;;;4906448;29;20048;-83
2022/08/31 05:41:06;;;;;;;1.67;0.50;;;15.30;99.90;;;;;;4906450;29;20048;-84
2022/08/31 05:43:32;;;;;;;1.98;0.57;;;15.40;99.90;;;;;;4906549;29;20131;-83
2022/08/31 05:45:58;;;;;;;1.85;0.55;;;15.40;99.90;;;;;;4906587;29;20487;-83
2022/08/31 05:48:26;;;;;;;2.47;0.55;;;15.50;99.90;;;;;;4923265;29;20495;-85
2022/08/31 05:50:53;;;;;;;3.50;0.80;;;15.60;99.90;;;;;;4906757;29;20107;-82
2022/08/31 05:53:18;;;;;;;2.90;0.50;;;15.60;99.90;;;;;;4906359;29;20056;-82
2022/08/31 05:55:44;;;;;;;1.63;1.27;;;15.70;99.90;;;;;;4906202;29;20051;-83
2022/08/31 05:58:11;;;;;;;1.65;0.80;;;15.80;99.90;;;;;;4923307;29;20048;-82
2022/08/31 06:00:38;;;;;;;4.25;0.70;;;15.90;99.90;;;;;;4906381;29;20131;-84
2022/08/31 06:03:04;;;;;;;0.88;0.50;;;16.10;99.90;;;;;;4906307;29;20040;-82
2022/08/31 06:05:30;;;;;;;2.40;0.65;;;16.20;99.90;;;;;;4906166;29;20048;-82
2022/08/31 06:07:55;;;;;;;6.03;0.80;;;16.30;99.90;;;;;;4906325;29;20055;-82
2022/08/31 06:10:21;;;;;;;2.33;0.70;;;16.50;99.90;;;;;;4923125;29;20483;-81
2022/08/31 06:12:50;;;;;;;2.47;0.60;;;16.60;99.90;;;;;;4906167;29;20044;-81
2022/08/31 06:15:16;;;;;;;1.67;0.65;;;16.70;99.90;;;;;;4906062;29;20403;-81
2022/08/31 06:17:43;;;;;;;2.10;0.57;;;16.80;99.90;;;;;;4906280;29;20044;-84
2022/08/31 06:20:09;;;;;;;1.10;0.63;;;17.00;99.90;;;;;;4906486;29;20048;-82
2022/08/31 06:22:36;;;;;;;2.47;0.65;;;17.20;99.90;;;;;;4906079;29;20058;-81
2022/08/31 06:25:05;;;;;;;3.10;0.60;;;17.30;99.90;;;;;;4916311;29;20534;-80
2022/08/31 06:27:33;;;;;;;2.92;0.60;;;17.40;99.90;;;;;;4908253;29;20079;-82
2022/08/31 06:30:00;;;;;;;2.17;0.80;;;17.40;99.90;;;;;;4885173;29;20045;-81
2022/08/31 06:32:26;;;;;;;1.83;0.60;;;17.50;99.90;;;;;;4884069;29;20079;-81
2022/08/31 06:34:52;;;;;;;1.92;0.63;;;17.70;99.90;;;;;;4900576;29;20092;-81
2022/08/31 06:37:17;;;;;;;1.73;0.50;;;17.70;99.90;;;;;;4883950;29;20123;-81
2022/08/31 06:39:43;;;;;;;1.90;0.70;;;17.80;99.90;;;;;;4884166;29;20095;-81
2022/08/31 06:42:09;;;;;;;1.27;0.40;;;17.90;99.90;;;;;;4900626;29;20470;-82
2022/08/31 06:44:34;;;;;;;2.38;0.80;;;18.00;99.90;;;;;;4884103;29;20109;-80
2022/08/31 06:47:01;;;;;;;1.42;0.60;;;18.20;99.90;;;;;;4900613;29;20048;-81
2022/08/31 06:49:27;;;;;;;1.67;0.60;;;18.30;99.90;;;;;;4900780;29;20084;-81
2022/08/31 06:51:53;;;;;;;1.52;0.50;;;18.40;99.90;;;;;;4900436;29;20076;-81
2022/08/31 06:54:18;;;;;;;2.92;0.63;;;18.40;99.90;;;;;;4883687;29;20507;-81
2022/08/31 06:56:44;;;;;;;2.67;0.50;;;18.50;99.90;;;;;;4883591;29;20135;-81
2022/08/31 06:59:11;;;;;;;3.20;0.70;;;18.60;99.90;;;;;;4883776;29;20100;-80
2022/08/31 07:01:39;;;;;;;1.70;0.60;;;18.70;99.90;;;;;;4886378;29;20048;-79
2022/08/31 07:04:08;;;;;;;3.53;0.60;;;18.80;99.90;;;;;;4911277;29;20102;-80
2022/08/31 07:06:37;;;;;;;2.00;0.50;;;18.80;99.90;;;;;;4921070;29;20051;-80
2022/08/31 07:09:05;;;;;;;1.13;0.40;;;18.80;99.90;;;;;;4921234;29;20044;-80
2022/08/31 07:11:40;;;;;;;1.80;0.40;;;18.90;99.90;;;;;;4921210;29;20043;-80
2022/08/31 07:14:08;;;;;;;1.83;0.50;;;19.00;99.90;;;;;;4916312;29;20040;-80
2022/08/31 07:16:35;;;;;;;3.75;0.70;;;19.10;99.90;;;;;;4900621;29;20071;-79
2022/08/31 07:19:05;;;;;;;1.58;0.50;;;19.10;99.90;;;;;;4902172;29;20059;-80
2022/08/31 07:21:39;;;;;;;1.83;0.60;;;19.20;99.90;;;;;;4893820;29;20104;-79
2022/08/31 07:24:06;;;;;;;5.45;0.95;;;19.20;99.90;;;;;;4889362;29;20448;-80
2022/08/31 07:26:36;;;;;;;1.60;0.50;;;19.10;99.90;;;;;;4914453;29;20063;-80
2022/08/31 07:29:06;;;;;;;2.22;0.50;;;19.00;99.90;;;;;;4899924;29;20052;-79
2022/08/31 07:31:45;;;;;;;1.00;0.50;;;19.00;99.90;;;;;;4882987;29;20095;-80
2022/08/31 07:34:26;;;;;;;0.80;0.32;;;19.10;99.90;;;;;;4883074;29;20404;-80
2022/08/31 07:42:31;;;;;;;0.80;0.40;;;19.40;99.90;;;;;;4899684;29;20063;-79
2022/08/31 07:44:59;;;;;;;1.70;0.50;;;19.40;99.90;;;;;;4899931;29;20567;-80
2022/08/31 07:47:27;;;;;;;3.33;0.68;;;19.50;99.90;;;;;;4883020;29;20056;-81
2022/08/31 07:49:55;;;;;;;1.73;0.50;;;19.30;99.90;;;;;;4882571;29;20389;-80
2022/08/31 07:52:25;;;;;;;3.75;0.80;;;19.40;99.90;;;;;;4899249;29;20108;-80
2022/08/31 07:54:53;;;;;;;1.88;0.75;;;19.50;99.90;;;;;;4882592;29;20044;-80
2022/08/31 07:57:20;;;;;;;1.08;0.40;;;19.70;99.90;;;;;;4889473;29;20044;-82
2022/08/31 07:59:46;;;;;;;3.58;0.50;;;19.80;99.90;;;;;;4904539;29;20041;-81
2022/08/31 08:02:13;;;;;;;2.53;0.45;;;19.80;99.90;;;;;;4898997;29;20484;-80
2022/08/31 08:04:42;;;;;;;1.90;0.40;;;19.90;99.90;;;;;;4906570;29;20395;-81
2022/08/31 08:07:10;;;;;;;1.40;0.50;;;19.90;99.90;;;;;;4882430;29;20045;-80
2022/08/31 08:09:36;;;;;;;2.67;0.68;;;20.00;99.90;;;;;;4882123;29;20124;-79
2022/08/31 08:12:05;;;;;;;1.52;0.45;;;20.00;99.90;;;;;;4913817;29;20044;-79
2022/08/31 08:14:38;;;;;;;2.20;0.47;;;20.00;99.90;;;;;;4882132;29;20061;-79
2022/08/31 08:17:06;;;;;;;1.48;0.40;;;20.00;99.90;;;;;;4913765;29;20051;-79
2022/08/31 08:19:32;;;;;;;2.28;0.43;;;19.90;99.90;;;;;;4882172;29;20049;-80
2022/08/31 08:22:01;;;;;;;0.93;0.35;;;19.90;99.90;;;;;;4882167;29;20049;-80
2022/08/31 08:24:28;;;;;;;1.25;0.47;;;19.90;99.90;;;;;;4898843;29;20052;-81
2022/08/31 08:26:54;;;;;;;0.43;0.20;;;19.80;99.90;;;;;;4882112;29;20100;-81
2022/08/31 08:29:20;;;;;;;0.88;0.40;;;19.80;99.90;;;;;;4881783;29;20048;-81
2022/08/31 08:31:51;;;;;;;2.13;0.50;;;19.90;99.90;;;;;;4880067;29;20117;-81
2022/08/31 08:34:18;;;;;;;0.77;0.30;;;20.00;99.90;;;;;;4881737;29;20381;-80
2022/08/31 08:36:45;;;;;;;2.45;0.47;;;20.30;99.90;;;;;;4898705;29;20496;-80
2022/08/31 08:39:11;;;;;;;1.30;0.63;;;20.20;99.90;;;;;;4911838;29;20045;-80
2022/08/31 08:41:40;;;;;;;1.70;0.47;;;20.20;99.90;;;;;;4881922;29;20092;-94
2022/08/31 08:44:11;;;;;;;2.17;0.52;;;20.20;99.90;;;;;;4913106;29;20055;-85
2022/08/31 08:46:56;;;;;;;1.17;0.52;;;20.20;99.90;;;;;;4881812;29;20053;-83
2022/08/31 08:49:51;;;;;;;1.35;0.40;;;20.20;99.90;;;;;;4888514;29;20048;-82
2022/08/31 08:52:30;;;;;;;2.42;0.45;;;20.40;99.90;;;;;;4900213;29;20083;-83
2022/08/31 08:55:00;;;;;;;1.08;0.50;;;20.30;99.90;;;;;;4916181;29;20488;-81
2022/08/31 08:57:29;;;;;;;0.70;0.38;;;20.40;99.90;;;;;;4900848;29;20134;-81
2022/08/31 08:59:59;;;;;;;2.58;0.50;;;20.40;99.90;;;;;;4900475;29;20052;-79
2022/08/31 09:02:33;;;;;;;2.05;0.40;;;20.40;99.90;;;;;;4916927;29;20442;-83
2022/08/31 09:05:29;;;;;;;1.88;0.50;;;20.30;99.90;;;;;;4912624;29;20115;-85
2022/08/31 09:08:16;;;;;;;0.82;0.30;;;20.40;99.90;;;;;;4893678;29;20052;-82
2022/08/31 09:10:54;;;;;;;4.93;1.17;;;20.30;99.90;;;;;;4900196;29;20048;-82
2022/08/31 09:13:30;;;;;;;1.38;0.43;;;20.60;99.90;;;;;;4900290;29;20055;-83
2022/08/31 09:16:03;;;;;;;1.58;0.40;;;20.20;99.90;;;;;;4899702;29;20052;-83
2022/08/31 09:18:51;;;;;;;1.55;0.43;;;20.20;99.90;;;;;;4899988;29;20044;-84
2022/08/31 09:21:43;;;;;;;1.65;0.50;;;20.30;99.90;;;;;;4916816;29;20459;-85
2022/08/31 09:24:18;;;;;;;1.97;0.50;;;20.30;99.90;;;;;;4916221;29;20501;-82
2022/08/31 09:27:39;;;;;;;5.18;0.65;;;20.40;99.90;;;;;;4900101;29;20380;-82
2022/08/31 09:29:59;;;;;;;1.05;0.30;;;20.60;99.90;;;;;;4914003;29;20092;-81
2022/08/31 09:32:33;;;;;;;1.55;0.50;;;21.00;99.90;;;;;;4916928;29;20040;-80
2022/08/31 09:35:23;;;;;;;1.65;0.30;;;20.80;99.90;;;;;;4899192;29;20064;-80
2022/08/31 09:38:02;;;;;;;4.18;0.50;;;20.90;99.90;;;;;;4899870;29;20048;-80
2022/08/31 09:40:48;;;;;;;4.40;0.75;;;21.10;99.90;;;;;;4900075;29;20056;-81
2022/08/31 09:43:25;;;;;;;3.05;0.40;;;21.20;99.90;;;;;;4900035;29;20047;-84
2022/08/31 09:46:11;;;;;;;1.85;0.50;;;21.30;99.90;;;;;;4899704;29;20060;-81
2022/08/31 09:48:54;;;;;;;1.52;0.30;;;21.20;99.90;;;;;;4916914;29;20143;-81
2022/08/31 09:51:36;;;;;;;2.40;0.40;;;21.50;99.90;;;;;;4900242;29;20048;-82
2022/08/31 09:57:07;;;;;;;1.33;0.32;;;21.50;99.90;;;;;;4916980;29;20139;-80
2022/08/31 10:04:51;;;;;;;1.45;0.40;;;21.10;99.90;;;;;;5527462;23;20064;-81
2022/08/31 10:13:46;;;;;;;1.83;0.35;;;21.30;99.90;;;;;;5972736;23;20262;-84
2022/08/31 10:24:27;;;;;;;1.50;0.30;;;21.60;99.90;;;;;;4999914;23;20044;-81
2022/08/31 11:02:54;;;;;;;1.73;0.22;;;21.40;99.90;;;;;;5172995;23;21293;-84
2022/08/31 11:08:55;;;;;;;1.50;0.40;;;21.70;99.90;;;;;;4902401;29;20135;-82
2022/08/31 11:11:44;;;;;;;2.65;0.50;;;22.00;99.90;;;;;;4902538;29;20060;-84
2022/08/31 11:14:35;;;;;;;4.28;0.88;;;22.20;99.90;;;;;;4902610;29;20062;-82
2022/08/31 11:17:40;;;;;;;1.75;0.40;;;22.30;99.90;;;;;;4902138;29;20142;-82
2022/08/31 11:20:33;;;;;;;3.13;0.40;;;22.30;99.90;;;;;;4892297;29;20196;-81
2022/08/31 14:22:10;;;;;;;1.83;0.52;;;21.40;99.90;;;;;;5996598;23;20031;31
2022/08/31 14:24:46;;;;;;;3.22;0.50;;;21.80;99.90;;;;;;4872159;29;20056;-86
2022/08/31 14:28:00;;;;;;;4.20;0.80;;;22.10;99.90;;;;;;4865100;29;20053;-88
2022/08/31 14:31:11;;;;;;;4.05;0.90;;;22.00;99.90;;;;;;4815676;29;20422;-85
2022/08/31 15:58:57;;;;;;;4.07;0.70;;;20.90;99.90;;;;;;4881357;29;20056;-83
2022/08/31 16:01:25;;;;;;;3.28;0.77;;;20.70;99.90;;;;;;4882877;29;20052;-83
2022/08/31 16:03:56;;;;;;;5.53;0.90;;;20.40;99.90;;;;;;4882500;29;20049;-83
2022/08/31 16:06:26;;;;;;;3.13;0.47;;;20.50;99.90;;;;;;4882872;29;20126;-82
2022/08/31 16:08:55;;;;;;;3.00;0.75;;;20.30;99.90;;;;;;4899373;29;20050;-82
2022/08/31 16:11:29;;;;;;;2.15;0.60;;;20.50;99.90;;;;;;4882548;29;20044;-81
2022/08/31 16:13:58;;;;;;;2.55;0.70;;;20.60;99.90;;;;;;4882404;29;20079;-82
2022/08/31 16:16:28;;;;;;;5.07;0.68;;;20.80;99.90;;;;;;4899051;29;20441;-81
2022/08/31 16:18:56;;;;;;;3.92;0.50;;;20.60;99.90;;;;;;4899310;29;20162;-83
2022/08/31 16:21:22;;;;;;;3.03;0.50;;;20.50;99.90;;;;;;4882604;29;20056;-81
2022/08/31 16:23:58;;;;;;;3.70;0.52;;;20.40;99.90;;;;;;4882251;29;20048;-83
2022/08/31 16:26:25;;;;;;;2.72;0.70;;;20.40;99.90;;;;;;4899286;29;20053;-83
2022/08/31 16:28:52;;;;;;;2.13;0.70;;;20.60;99.90;;;;;;4882441;29;20048;-84
2022/08/31 16:31:17;;;;;;;1.83;0.50;;;20.30;99.90;;;;;;4882115;29;20095;-86
2022/08/31 16:33:43;;;;;;;5.10;0.60;;;20.30;99.90;;;;;;4882051;29;20088;-88
2022/08/31 16:36:17;;;;;;;2.53;0.45;;;20.00;99.90;;;;;;4881945;29;20131;-84
2022/08/31 16:38:44;;;;;;;2.80;0.60;;;20.10;99.90;;;;;;4898902;29;20066;-83
2022/08/31 16:41:11;;;;;;;6.05;0.60;;;20.00;99.90;;;;;;4898948;29;20044;-83
2022/08/31 16:43:38;;;;;;;1.67;0.60;;;20.00;99.90;;;;;;4898807;29;20853;-82
2022/08/31 16:46:11;;;;;;;3.03;0.57;;;20.00;99.90;;;;;;4881994;29;20060;-84
2022/08/31 16:51:22;;;;;;;2.42;0.80;;;20.00;99.90;;;;;;4882325;29;20100;-82
2022/08/31 16:53:53;;;;;;;2.20;0.90;;;19.90;99.90;;;;;;4898576;29;20111;-84
2022/08/31 16:56:24;;;;;;;3.83;0.70;;;19.80;99.90;;;;;;4883418;29;20049;-84
2022/08/31 16:58:51;;;;;;;2.13;0.70;;;19.80;99.90;;;;;;4900401;29;20408;-83
2022/08/31 17:01:23;;;;;;;4.03;0.70;;;19.80;99.90;;;;;;4900360;29;20131;-83
2022/08/31 17:03:55;;;;;;;5.13;0.73;;;19.70;99.90;;;;;;4900430;29;20407;-84
2022/08/31 17:06:23;;;;;;;3.00;0.70;;;19.60;99.90;;;;;;4900275;29;20448;-83
2022/08/31 17:08:56;;;;;;;3.22;1.10;;;19.60;99.90;;;;;;4917335;29;20051;-84
2022/08/31 17:11:23;;;;;;;2.05;0.90;;;19.60;99.90;;;;;;4900545;29;20084;-83
2022/08/31 17:13:57;;;;;;;3.58;0.90;;;19.50;99.90;;;;;;4899873;29;20048;-83
2022/08/31 17:16:33;;;;;;;2.83;0.82;;;19.40;99.90;;;;;;4900567;29;20100;-84
2022/08/31 17:19:02;;;;;;;4.45;1.30;;;19.40;99.90;;;;;;4917413;29;20044;-85
2022/08/31 17:21:30;;;;;;;2.85;0.90;;;19.20;99.90;;;;;;4917357;29;20052;-85
2022/08/31 17:24:00;;;;;;;5.70;1.42;;;19.20;99.90;;;;;;4900282;29;20535;-83
2022/08/31 17:26:29;;;;;;;2.95;0.93;;;19.10;99.90;;;;;;4900456;29;20497;-84
2022/08/31 17:29:05;;;;;;;4.18;1.15;;;19.10;99.90;;;;;;4900195;29;20048;-83
2022/08/31 17:31:43;;;;;;;5.30;0.75;;;18.90;99.90;;;;;;4917255;29;20048;-82
2022/08/31 17:34:13;;;;;;;2.88;1.00;;;19.00;99.90;;;;;;4917453;29;20058;-84
2022/08/31 17:36:39;;;;;;;4.35;1.00;;;18.90;99.90;;;;;;4917233;29;20060;-88
2022/08/31 17:39:07;;;;;;;4.85;1.17;;;18.80;99.90;;;;;;4917085;29;20052;-84
2022/08/31 17:41:33;;;;;;;2.72;0.80;;;18.80;99.90;;;;;;4915739;29;20052;-89
2022/08/31 17:43:59;;;;;;;3.55;1.00;;;18.60;99.90;;;;;;4900237;29;20138;-84
2022/08/31 17:46:25;;;;;;;1.85;0.95;;;18.60;99.90;;;;;;4900293;29;20522;-84
2022/08/31 17:48:54;;;;;;;3.47;0.90;;;18.70;99.90;;;;;;4900186;29;20107;-86
2022/08/31 17:51:28;;;;;;;5.20;1.15;;;18.70;99.90;;;;;;4916944;29;20560;-83
2022/08/31 17:54:09;;;;;;;3.45;1.10;;;18.60;99.90;;;;;;4899919;29;20050;-84
2022/08/31 17:56:44;;;;;;;2.15;0.70;;;18.60;99.90;;;;;;4899637;29;20139;-85
2022/08/31 17:59:13;;;;;;;2.72;0.95;;;18.60;99.90;;;;;;4900378;29;20103;-83
2022/08/31 18:01:41;;;;;;;2.97;1.08;;;18.50;99.90;;;;;;4900104;29;20096;-84
2022/08/31 18:04:07;;;;;;;1.75;0.70;;;18.40;99.90;;;;;;4899856;29;20052;-85
2022/08/31 18:06:33;;;;;;;3.40;1.13;;;18.40;99.90;;;;;;4899778;29;20058;-85
2022/08/31 18:08:59;;;;;;;3.53;1.08;;;18.40;99.90;;;;;;4916686;29;20055;-84
2022/08/31 18:11:28;;;;;;;5.15;1.17;;;18.40;99.90;;;;;;4916866;29;20048;-84
2022/08/31 18:13:55;;;;;;;5.28;1.52;;;18.40;99.90;;;;;;4899713;29;20051;-83
2022/08/31 18:16:21;;;;;;;2.38;0.90;;;18.30;99.90;;;;;;4916801;29;20051;-85
2022/08/31 18:18:48;;;;;;;3.30;1.15;;;18.40;99.90;;;;;;4916681;29;20048;-85
2022/08/31 18:21:16;;;;;;;7.18;1.10;;;18.20;99.90;;;;;;4916727;29;20044;-83
2022/08/31 18:23:42;;;;;;;3.83;1.20;;;18.20;99.90;;;;;;4899584;29;20052;-83
2022/08/31 18:26:29;;;;;;;1.55;0.70;;;18.20;99.90;;;;;;4916787;29;20048;-84
2022/08/31 18:28:56;;;;;;;3.65;1.23;;;18.20;99.90;;;;;;4919834;29;20522;-84
2022/08/31 18:31:29;;;;;;;2.47;0.88;;;18.20;99.90;;;;;;4903183;29;20048;-85
2022/08/31 18:34:03;;;;;;;4.00;1.00;;;18.20;99.90;;;;;;4902920;29;20052;-84
2022/08/31 18:36:30;;;;;;;6.03;1.00;;;18.10;99.90;;;;;;4920150;29;20050;-90
2022/08/31 18:38:58;;;;;;;3.80;1.30;;;18.10;99.90;;;;;;4903066;29;20044;-82